Ivs Sunbird — 9V3262 — position and weather

sailwx.info

Track history (hours):
 
Tides and Currents Weather Stations Pressure Air Temp Water Temp Dewpoint Dewpoint Depression Visibility Wind Speed Wind Dir Waves Ship Positions

Ivs Sunbird

Last reported at 2018-Jun-12 01:31 UTC. Time now 2018-Jun-19 23:39 UTC.
Position N 31°09' E 121°53'.

Length 177 m; draft 5.8 m.

Type: Cargo ship. MMSI: 563475000.

Date/timePositionNaut miles runAvg speedWind from/ knotsBaromVisibWave heightAir tempDewpointWater temp
2018-Jun-12 01:31N 31°09' E 121°53'116.0
2018-Jun-12 01:29N 31°09' E 121°53'714.4
2018-Jun-12 01:00N 31°05' E 122°00'714.9
2018-Jun-12 00:30N 31°03' E 122°08'510.6
2018-Jun-12 00:00N 31°03' E 122°14'5 9.1
2018-Jun-11 23:28N 31°02' E 122°20'4 8.1
2018-Jun-11 23:00N 31°01' E 122°24'4 7.7
2018-Jun-11 22:30N 31°01' E 122°29'4 8.5
2018-Jun-11 22:00N 30°60' E 122°34'4 7.7
2018-Jun-11 21:30N 30°59' E 122°38'4 7.3
2018-Jun-11 20:58N 30°59' E 122°43'4 7.6
2018-Jun-11 20:30N 30°58' E 122°47'4 8.5
2018-Jun-11 20:00N 31°02' E 122°49'5 9.0
2018-Jun-11 19:29N 31°05' E 122°52'511.3
2018-Jun-11 19:00N 31°09' E 122°57'611.2
2018-Jun-11 18:30N 31°13' E 123°02'611.2
2018-Jun-11 18:00N 31°18' E 123°05'811.6
2018-Jun-11 17:19N 31°24' E 123°11'  
Track history (hours):
 
Tides and Currents Weather Stations Pressure Air Temp Water Temp Dewpoint Dewpoint Depression Visibility Wind Speed Wind Dir Waves Ship Positions

Ivs Sunbird

Last reported at 2018-Jun-12 01:31 UTC. Time now 2018-Jun-19 23:39 UTC.
Position N 31°09' E 121°53'.

Length 177 m; draft 5.8 m.

Type: Cargo ship. MMSI: 563475000.

Date/timePositionNaut miles runAvg speedWind from/ knotsBaromVisibWave heightAir tempDewpointWater temp
2018-Jun-12 01:31N 31°09' E 121°53'116.0
2018-Jun-12 01:29N 31°09' E 121°53'714.4
2018-Jun-12 01:00N 31°05' E 122°00'714.9
2018-Jun-12 00:30N 31°03' E 122°08'510.6
2018-Jun-12 00:00N 31°03' E 122°14'5 9.1
2018-Jun-11 23:28N 31°02' E 122°20'4 8.1
2018-Jun-11 23:00N 31°01' E 122°24'4 7.7
2018-Jun-11 22:30N 31°01' E 122°29'4 8.5
2018-Jun-11 22:00N 30°60' E 122°34'4 7.7
2018-Jun-11 21:30N 30°59' E 122°38'4 7.3
2018-Jun-11 20:58N 30°59' E 122°43'4 7.6
2018-Jun-11 20:30N 30°58' E 122°47'4 8.5
2018-Jun-11 20:00N 31°02' E 122°49'5 9.0
2018-Jun-11 19:29N 31°05' E 122°52'511.3
2018-Jun-11 19:00N 31°09' E 122°57'611.2
2018-Jun-11 18:30N 31°13' E 123°02'611.2
2018-Jun-11 18:00N 31°18' E 123°05'811.6
2018-Jun-11 17:19N 31°24' E 123°11'  

Dump ship's entire track history